Time;durP1;ratioP1;P1;durP2;ratioP2;P2;SDS_P1;SDS_P2;PMS_P1;PMS_P2;Temp;Humidity;BMP_temperature;BMP_pressure;BME280_temperature;BME280_humidity;BME280_pressure;Samples;Min_cycle;Max_cycle;Signal;HPM_P1;HPM_P2
2021/07/07 00:00:51;;;;;;;9.82;2.42;;;21.10;79.70;;;;;;4256824;27;20051;-70
2021/07/07 00:02:54;;;;;;;7.80;1.92;;;21.10;79.50;;;;;;4258139;27;20446;-70
2021/07/07 00:04:59;;;;;;;14.48;2.00;;;21.20;79.60;;;;;;4258484;27;20058;-70
2021/07/07 00:07:02;;;;;;;9.02;1.83;;;21.30;79.30;;;;;;4259230;27;20518;-71
2021/07/07 00:09:05;;;;;;;10.18;2.10;;;21.20;79.20;;;;;;4250713;27;20066;-71
2021/07/07 00:11:08;;;;;;;12.50;2.42;;;21.30;79.70;;;;;;4252265;27;20059;-70
2021/07/07 00:13:11;;;;;;;11.77;2.40;;;21.30;79.30;;;;;;4251294;27;20051;-70
2021/07/07 00:15:17;;;;;;;13.77;2.42;;;21.30;79.30;;;;;;4250305;27;20047;-70
2021/07/07 00:17:20;;;;;;;9.55;1.90;;;21.50;78.70;;;;;;4248865;27;20055;-70
2021/07/07 00:19:23;;;;;;;9.38;1.90;;;21.50;78.80;;;;;;4248484;27;20100;-71
2021/07/07 00:21:27;;;;;;;10.00;1.73;;;21.40;79.30;;;;;;4248501;27;20066;-71
2021/07/07 00:23:31;;;;;;;8.88;2.38;;;21.20;79.70;;;;;;4248137;27;20104;-70
2021/07/07 00:25:34;;;;;;;12.27;2.35;;;21.20;79.70;;;;;;4247960;27;20055;-69
2021/07/07 00:27:37;;;;;;;9.82;2.33;;;21.20;79.70;;;;;;4247859;27;20047;-71
2021/07/07 00:29:42;;;;;;;9.68;2.17;;;21.20;79.70;;;;;;4248118;27;20059;-70
2021/07/07 00:31:45;;;;;;;11.75;1.95;;;21.30;79.80;;;;;;4247142;27;20092;-71
2021/07/07 00:33:48;;;;;;;11.85;2.75;;;21.20;79.80;;;;;;4248154;27;20047;-70
2021/07/07 00:35:51;;;;;;;9.95;1.98;;;21.00;80.40;;;;;;4248156;27;20059;-69
2021/07/07 00:37:58;;;;;;;10.73;2.13;;;20.90;80.80;;;;;;4247833;27;20051;-70
2021/07/07 00:40:02;;;;;;;12.30;1.92;;;20.90;80.40;;;;;;4248174;27;20518;-71
2021/07/07 00:42:05;;;;;;;12.13;2.22;;;21.00;80.30;;;;;;4248135;27;20055;-71
2021/07/07 00:44:08;;;;;;;11.35;2.58;;;21.00;80.40;;;;;;4247851;27;20051;-72
2021/07/07 00:46:11;;;;;;;11.00;2.50;;;21.10;80.10;;;;;;4247807;27;20051;-71
2021/07/07 00:48:14;;;;;;;9.68;2.10;;;21.20;79.80;;;;;;4247783;27;20047;-71
2021/07/07 00:50:19;;;;;;;11.47;2.40;;;21.20;79.90;;;;;;4247990;27;20050;-70
2021/07/07 00:52:22;;;;;;;11.00;1.85;;;21.20;80.00;;;;;;4247193;27;20475;-69
2021/07/07 00:54:27;;;;;;;8.82;2.08;;;21.20;80.00;;;;;;4247652;27;20074;-72
2021/07/07 00:56:31;;;;;;;10.75;2.13;;;21.00;80.80;;;;;;4247668;27;20059;-71
2021/07/07 00:58:35;;;;;;;10.03;2.00;;;20.80;81.30;;;;;;4247984;27;20055;-69
2021/07/07 01:00:39;;;;;;;13.07;2.38;;;20.80;81.60;;;;;;4247908;27;20475;-72
2021/07/07 01:02:43;;;;;;;9.80;2.28;;;20.90;81.70;;;;;;4247704;27;20055;-70
2021/07/07 01:04:46;;;;;;;12.77;2.35;;;20.80;82.00;;;;;;4247828;27;20062;-71
2021/07/07 01:06:49;;;;;;;9.07;2.58;;;20.70;82.20;;;;;;4247773;27;20047;-69
2021/07/07 01:08:55;;;;;;;10.15;1.83;;;20.80;82.70;;;;;;4248518;27;20067;-71
2021/07/07 01:11:00;;;;;;;11.00;2.00;;;20.70;83.00;;;;;;4231205;28;20063;-69
2021/07/07 01:13:03;;;;;;;15.00;2.38;;;20.60;83.40;;;;;;4231922;28;20060;-70
2021/07/07 01:15:08;;;;;;;14.32;2.25;;;20.60;83.50;;;;;;4233818;28;20052;-70
2021/07/07 01:17:11;;;;;;;11.93;2.03;;;20.40;84.80;;;;;;4232900;28;20051;-70
2021/07/07 01:19:15;;;;;;;10.40;2.38;;;20.40;84.70;;;;;;4232034;28;20057;-71
2021/07/07 01:21:19;;;;;;;12.25;2.10;;;20.50;84.70;;;;;;4230813;28;20059;-70
2021/07/07 01:23:23;;;;;;;12.88;2.22;;;20.40;85.00;;;;;;4230494;28;20054;-70
2021/07/07 01:25:26;;;;;;;15.02;2.17;;;20.40;85.20;;;;;;4230361;28;20106;-70
2021/07/07 01:27:30;;;;;;;15.20;2.58;;;20.50;85.60;;;;;;4216295;28;20047;-70
2021/07/07 01:29:33;;;;;;;9.80;1.85;;;20.50;85.30;;;;;;4234416;27;20051;-70
2021/07/07 01:31:37;;;;;;;12.27;2.78;;;20.40;85.60;;;;;;4230751;28;20059;-70
2021/07/07 01:33:40;;;;;;;15.70;2.47;;;20.40;85.30;;;;;;4230519;28;20122;-70
2021/07/07 01:35:43;;;;;;;7.80;1.98;;;20.30;85.80;;;;;;4230051;28;20468;-71
2021/07/07 01:37:47;;;;;;;10.00;2.13;;;20.20;86.70;;;;;;4231622;28;20047;-71
2021/07/07 01:39:52;;;;;;;11.07;2.28;;;20.10;86.80;;;;;;4231976;28;20491;-70
2021/07/07 01:41:55;;;;;;;13.73;2.67;;;20.20;87.00;;;;;;4230785;28;20066;-71
2021/07/07 01:43:59;;;;;;;11.50;1.88;;;20.20;86.90;;;;;;4231133;28;20062;-70
2021/07/07 01:46:02;;;;;;;13.57;2.65;;;20.30;86.70;;;;;;4231440;28;20055;-70
2021/07/07 01:48:05;;;;;;;9.85;2.20;;;20.20;87.20;;;;;;4231142;28;20058;-70
2021/07/07 01:50:10;;;;;;;13.40;2.20;;;20.30;87.20;;;;;;4230571;28;20064;-71
2021/07/07 01:52:14;;;;;;;17.63;2.38;;;20.20;87.50;;;;;;4231101;28;20412;-71
2021/07/07 01:54:17;;;;;;;12.40;2.92;;;20.20;88.10;;;;;;4230195;28;20112;-70
2021/07/07 01:56:21;;;;;;;10.48;1.95;;;20.40;86.60;;;;;;4196723;28;20057;-70
2021/07/07 01:58:24;;;;;;;10.50;2.20;;;20.40;87.20;;;;;;4196384;28;20072;-70
2021/07/07 02:00:30;;;;;;;12.27;2.38;;;20.10;88.40;;;;;;4196735;28;20059;-70
2021/07/07 02:02:32;;;;;;;10.68;2.45;;;20.20;88.20;;;;;;4196220;28;20060;-71
2021/07/07 02:04:36;;;;;;;8.40;1.83;;;20.20;88.60;;;;;;4196613;28;20063;-70
2021/07/07 02:06:38;;;;;;;13.30;2.72;;;20.00;89.30;;;;;;4196243;28;20086;-71
2021/07/07 02:08:42;;;;;;;8.63;2.10;;;20.10;89.10;;;;;;4196920;28;20075;-70
2021/07/07 02:10:45;;;;;;;8.45;2.22;;;20.10;88.80;;;;;;4211936;28;20055;-71
2021/07/07 02:12:50;;;;;;;10.55;2.08;;;20.30;88.30;;;;;;4213652;28;20055;-72
2021/07/07 02:14:53;;;;;;;12.23;2.40;;;20.40;88.10;;;;;;4214161;28;20436;-72
2021/07/07 02:16:56;;;;;;;10.20;2.40;;;20.40;88.70;;;;;;4213769;28;20501;-71
2021/07/07 02:19:00;;;;;;;10.65;2.22;;;20.30;88.20;;;;;;4213685;28;20060;-72
2021/07/07 02:21:03;;;;;;;11.55;2.83;;;20.40;88.50;;;;;;4214584;28;20056;-70
2021/07/07 02:23:06;;;;;;;11.77;2.40;;;20.30;89.00;;;;;;4212484;28;20068;-71
2021/07/07 02:25:12;;;;;;;9.15;2.20;;;20.30;88.90;;;;;;4213129;28;20503;-71
2021/07/07 02:27:15;;;;;;;10.18;2.55;;;20.30;88.50;;;;;;4212586;28;20465;-71
2021/07/07 02:29:20;;;;;;;7.60;2.00;;;20.50;88.60;;;;;;4212818;28;20055;-72
2021/07/07 02:31:23;;;;;;;12.70;2.47;;;20.50;88.90;;;;;;4212823;28;20560;-72
2021/07/07 02:33:26;;;;;;;11.55;2.10;;;20.40;89.20;;;;;;4212440;28;20067;-71
2021/07/07 02:35:31;;;;;;;12.82;2.20;;;20.40;88.80;;;;;;4212429;28;20501;-70
2021/07/07 02:37:34;;;;;;;;;;;20.30;89.90;;;;;;4213095;28;20125;-70
2021/07/07 02:39:37;;;;;;;14.73;2.10;;;20.30;89.70;;;;;;4212016;28;19923;-69
2021/07/07 02:41:40;;;;;;;10.63;2.45;;;20.30;90.00;;;;;;4212511;28;20484;-70
2021/07/07 02:43:43;;;;;;;7.65;2.28;;;20.20;90.00;;;;;;4213486;28;20048;-70
2021/07/07 02:45:48;;;;;;;9.60;2.47;;;20.40;89.60;;;;;;4212577;28;20386;-69
2021/07/07 02:47:51;;;;;;;;;;;20.40;90.00;;;;;;4213442;28;20113;-70
2021/07/07 02:49:55;;;;;;;8.75;2.35;;;20.40;90.00;;;;;;4212883;28;20521;-69
2021/07/07 02:51:57;;;;;;;7.13;2.10;;;20.30;90.60;;;;;;4212415;28;20148;-70
2021/07/07 02:54:00;;;;;;;10.02;2.70;;;20.10;90.70;;;;;;4211119;28;20047;-70
2021/07/07 02:56:04;;;;;;;14.38;2.92;;;20.10;90.80;;;;;;4242534;27;20503;-70
2021/07/07 02:58:07;;;;;;;12.10;2.50;;;20.20;90.90;;;;;;4245936;27;20055;-72
2021/07/07 03:00:11;;;;;;;14.05;2.97;;;20.00;91.00;;;;;;4246295;27;20055;-70
2021/07/07 03:02:15;;;;;;;11.43;2.17;;;19.90;91.20;;;;;;4245601;27;20063;-72
2021/07/07 03:04:19;;;;;;;10.52;2.67;;;20.10;91.10;;;;;;4245840;27;20047;-71
2021/07/07 03:06:22;;;;;;;12.10;2.55;;;20.10;91.10;;;;;;4246125;27;20050;-71
2021/07/07 03:08:26;;;;;;;10.70;2.90;;;19.90;91.50;;;;;;4245537;27;20047;-72
2021/07/07 03:10:29;;;;;;;19.98;2.92;;;19.80;91.60;;;;;;4246082;27;20051;-71
2021/07/07 03:12:32;;;;;;;12.93;2.10;;;19.90;91.70;;;;;;4246442;28;20051;-71
2021/07/07 03:14:35;;;;;;;9.50;2.67;;;19.70;92.00;;;;;;4247121;27;20059;-70
2021/07/07 03:16:38;;;;;;;14.40;2.90;;;19.70;92.50;;;;;;4253714;27;20426;-71
2021/07/07 03:18:44;;;;;;;9.50;2.25;;;19.60;92.30;;;;;;4253642;27;20051;-72
2021/07/07 03:20:49;;;;;;;11.25;2.40;;;19.50;92.60;;;;;;4254161;27;20047;-70
2021/07/07 03:22:52;;;;;;;;;;;19.50;92.70;;;;;;4235971;27;20113;-70
2021/07/07 03:24:55;;;;;;;10.18;2.58;;;19.30;93.20;;;;;;4253337;27;19920;-69
2021/07/07 03:26:57;;;;;;;12.73;2.65;;;19.40;93.00;;;;;;4252903;27;20049;-70
2021/07/07 03:29:00;;;;;;;9.55;2.35;;;19.40;93.00;;;;;;4240098;27;20051;-70
2021/07/07 03:31:04;;;;;;;13.05;2.70;;;19.50;92.70;;;;;;4218783;28;20583;-70
2021/07/07 03:33:07;;;;;;;10.02;2.33;;;19.50;93.00;;;;;;4239269;28;20063;-71
2021/07/07 03:35:13;;;;;;;14.85;2.63;;;19.50;93.00;;;;;;4236549;28;20077;-72
2021/07/07 03:37:15;;;;;;;14.10;2.60;;;19.50;93.10;;;;;;4217759;28;20052;-72
2021/07/07 03:39:18;;;;;;;16.27;2.90;;;19.40;93.60;;;;;;4234275;28;20060;-71
2021/07/07 03:41:21;;;;;;;18.35;2.78;;;19.40;93.70;;;;;;4234134;28;20055;-72
2021/07/07 03:43:24;;;;;;;15.48;2.80;;;19.40;93.70;;;;;;4234023;28;20488;-72
2021/07/07 03:45:28;;;;;;;12.48;2.40;;;19.50;93.50;;;;;;4233954;28;20062;-71
2021/07/07 03:47:31;;;;;;;15.35;2.95;;;19.40;93.40;;;;;;4234194;28;20062;-71
2021/07/07 03:49:34;;;;;;;10.48;2.30;;;19.40;93.70;;;;;;4233878;28;20055;-71
2021/07/07 03:51:39;;;;;;;10.98;2.78;;;19.50;93.70;;;;;;4233804;28;20066;-71
2021/07/07 03:53:42;;;;;;;9.35;2.30;;;19.50;93.70;;;;;;4233566;28;20051;-69
2021/07/07 03:55:44;;;;;;;11.98;2.50;;;19.50;93.60;;;;;;4233553;28;20055;-69
2021/07/07 03:57:48;;;;;;;14.60;3.22;;;19.50;93.70;;;;;;4215565;28;20052;-70
2021/07/07 03:59:51;;;;;;;12.60;2.73;;;19.40;94.00;;;;;;4233983;28;20056;-71
2021/07/07 04:01:56;;;;;;;;;;;19.30;94.30;;;;;;4234291;28;20105;-71
2021/07/07 04:03:59;;;;;;;13.82;2.75;;;19.40;94.20;;;;;;4233792;28;19927;-69
2021/07/07 04:06:02;;;;;;;13.38;2.70;;;19.50;94.00;;;;;;4233828;28;20051;-69
2021/07/07 04:08:06;;;;;;;11.73;2.65;;;19.50;93.90;;;;;;4233560;28;20055;-70
2021/07/07 04:10:11;;;;;;;13.55;2.55;;;19.50;94.00;;;;;;4244155;27;20051;-70
2021/07/07 04:12:15;;;;;;;17.95;3.33;;;19.40;94.50;;;;;;4250505;27;20104;-70
2021/07/07 04:14:23;;;;;;;12.38;2.88;;;19.50;94.20;;;;;;4250550;27;20519;-70
2021/07/07 04:16:26;;;;;;;14.43;3.15;;;19.40;94.50;;;;;;4250451;27;20491;-70
2021/07/07 04:18:29;;;;;;;13.35;2.85;;;19.40;94.60;;;;;;4250580;27;20065;-70
2021/07/07 04:20:32;;;;;;;11.27;2.83;;;19.40;94.40;;;;;;4250527;27;20051;-71
2021/07/07 04:22:36;;;;;;;13.48;2.78;;;19.50;94.20;;;;;;4250739;27;20051;-70
2021/07/07 04:24:40;;;;;;;13.40;2.70;;;19.60;94.20;;;;;;4250523;27;20054;-69
2021/07/07 04:26:44;;;;;;;10.70;2.95;;;19.70;94.00;;;;;;4248832;27;20046;-69
2021/07/07 04:28:47;;;;;;;10.43;2.60;;;19.70;94.00;;;;;;4247861;27;20069;-70
2021/07/07 04:30:50;;;;;;;14.82;2.67;;;19.70;94.10;;;;;;4248218;27;20054;-70
2021/07/07 04:32:53;;;;;;;11.73;2.70;;;19.60;94.10;;;;;;4230188;28;20055;-70
2021/07/07 04:34:56;;;;;;;12.27;3.20;;;19.70;94.10;;;;;;4250173;27;20071;-70
2021/07/07 04:36:59;;;;;;;14.68;2.97;;;19.70;94.10;;;;;;4250197;27;20051;-70
2021/07/07 04:39:04;;;;;;;12.25;2.92;;;19.70;94.10;;;;;;4250629;27;20059;-70
2021/07/07 04:41:08;;;;;;;;;;;19.70;94.00;;;;;;4249005;27;20056;-70
2021/07/07 04:43:11;;;;;;;9.25;2.75;;;19.70;94.20;;;;;;4229729;28;19926;-70
2021/07/07 04:45:15;;;;;;;13.02;2.75;;;19.70;94.00;;;;;;4247870;27;20507;-70
2021/07/07 04:47:18;;;;;;;8.95;2.75;;;19.70;94.10;;;;;;4247706;27;20059;-70
2021/07/07 04:49:21;;;;;;;14.77;2.78;;;19.70;94.30;;;;;;4247442;27;20104;-71
2021/07/07 04:51:24;;;;;;;10.65;3.28;;;19.70;94.10;;;;;;4247667;27;20512;-70
2021/07/07 04:53:27;;;;;;;11.57;2.72;;;19.80;94.00;;;;;;4247456;27;20051;-70
2021/07/07 04:55:30;;;;;;;13.07;3.20;;;19.80;94.00;;;;;;4247133;27;20422;-70
2021/07/07 04:57:41;;;;;;;17.83;3.65;;;19.70;94.20;;;;;;4247613;27;20055;-70
2021/07/07 04:59:44;;;;;;;13.82;2.70;;;19.50;94.70;;;;;;4247359;27;20062;-70
2021/07/07 05:01:47;;;;;;;17.40;3.20;;;19.50;94.80;;;;;;4247791;27;20048;-70
2021/07/07 05:03:50;;;;;;;16.17;3.90;;;19.40;95.00;;;;;;4247467;27;20063;-70
2021/07/07 05:05:53;;;;;;;16.13;2.63;;;19.50;94.80;;;;;;4247341;27;20056;-70
2021/07/07 05:07:56;;;;;;;12.65;3.22;;;19.60;94.80;;;;;;4229579;28;20071;-71
2021/07/07 05:09:59;;;;;;;11.77;3.00;;;19.50;95.00;;;;;;4247225;27;20044;-71
2021/07/07 05:12:02;;;;;;;10.45;2.97;;;19.40;95.20;;;;;;4247175;27;20058;-70
2021/07/07 05:14:07;;;;;;;15.10;2.72;;;19.50;95.30;;;;;;4247244;27;20062;-70
2021/07/07 05:16:12;;;;;;;;;;;19.20;95.90;;;;;;4247900;27;20581;-70
2021/07/07 05:18:15;;;;;;;14.93;3.20;;;19.20;96.10;;;;;;4247387;27;19919;-70
2021/07/07 05:20:19;;;;;;;13.65;3.05;;;19.20;95.90;;;;;;4247067;27;20062;-69
2021/07/07 05:22:22;;;;;;;17.98;3.80;;;19.40;95.60;;;;;;4247016;27;20059;-70
2021/07/07 05:24:25;;;;;;;14.70;3.15;;;19.60;95.40;;;;;;4246897;27;20055;-70
2021/07/07 05:26:28;;;;;;;17.95;3.05;;;19.70;95.20;;;;;;4247045;27;20047;-69
2021/07/07 05:28:31;;;;;;;13.50;2.85;;;19.60;95.30;;;;;;4228875;28;20142;-70
2021/07/07 05:30:36;;;;;;;13.38;2.95;;;19.70;95.10;;;;;;4236363;27;20056;-69
2021/07/07 05:32:39;;;;;;;12.50;2.75;;;19.70;95.30;;;;;;4230124;28;20056;-70
2021/07/07 05:34:42;;;;;;;13.35;3.10;;;19.50;95.60;;;;;;4230155;28;20060;-70
2021/07/07 05:36:45;;;;;;;10.65;2.60;;;19.50;95.70;;;;;;4230202;28;20051;-69
2021/07/07 05:38:48;;;;;;;16.70;3.00;;;19.70;95.30;;;;;;4229502;28;20062;-69
2021/07/07 05:40:51;;;;;;;11.60;3.13;;;19.60;95.60;;;;;;4231789;28;20430;-70
2021/07/07 05:42:55;;;;;;;21.38;3.20;;;19.60;96.00;;;;;;4231818;28;20565;-71
2021/07/07 05:44:58;;;;;;;16.10;3.30;;;19.60;95.80;;;;;;4232268;28;20070;-71
2021/07/07 05:47:03;;;;;;;20.80;4.18;;;19.60;95.80;;;;;;4232124;28;20063;-70
2021/07/07 05:49:06;;;;;;;12.43;3.53;;;19.60;95.90;;;;;;4233684;28;20105;-70
2021/07/07 05:51:09;;;;;;;11.45;3.85;;;19.60;95.90;;;;;;4230537;28;20051;-70
2021/07/07 05:53:12;;;;;;;23.17;3.35;;;19.60;95.90;;;;;;4229409;28;20431;-69
2021/07/07 05:55:16;;;;;;;12.15;3.33;;;19.50;96.00;;;;;;4229279;28;20052;-70
2021/07/07 05:57:24;;;;;;;16.80;3.67;;;19.70;95.90;;;;;;4229377;28;20083;-70
2021/07/07 05:59:27;;;;;;;14.73;3.83;;;19.60;95.90;;;;;;4229785;28;20101;-70
2021/07/07 06:01:30;;;;;;;13.40;3.47;;;19.80;95.80;;;;;;4229455;28;20059;-70
2021/07/07 06:03:34;;;;;;;18.30;3.90;;;19.90;95.80;;;;;;4229278;28;20410;-70
2021/07/07 06:05:37;;;;;;;16.25;3.50;;;19.90;95.60;;;;;;4229372;28;20439;-70
2021/07/07 06:07:40;;;;;;;16.73;3.58;;;20.00;95.50;;;;;;4229425;28;20048;-70
2021/07/07 06:09:43;;;;;;;15.65;3.70;;;20.30;95.10;;;;;;4236074;27;20055;-70
2021/07/07 06:11:46;;;;;;;14.70;3.47;;;20.10;95.10;;;;;;4246248;27;20059;-70
2021/07/07 06:13:49;;;;;;;14.80;3.10;;;19.90;95.30;;;;;;4246211;27;20495;-70
2021/07/07 06:15:53;;;;;;;13.60;3.20;;;19.80;95.40;;;;;;4246028;27;20430;-70
2021/07/07 06:17:56;;;;;;;15.43;3.50;;;19.90;95.60;;;;;;4246075;27;20076;-70
2021/07/07 06:20:01;;;;;;;18.55;3.85;;;20.10;95.20;;;;;;4246691;27;20441;-70
2021/07/07 06:22:04;;;;;;;11.88;3.30;;;20.00;95.20;;;;;;4246676;27;20625;-70
2021/07/07 06:24:07;;;;;;;18.60;3.80;;;20.00;95.30;;;;;;4246367;27;20058;-70
2021/07/07 06:26:10;;;;;;;17.52;3.17;;;19.80;95.50;;;;;;4245976;27;20055;-70
2021/07/07 06:28:13;;;;;;;11.15;3.17;;;19.80;95.40;;;;;;4246245;27;20066;-69
2021/07/07 06:30:19;;;;;;;11.55;3.45;;;19.90;95.40;;;;;;4245932;27;20059;-71
2021/07/07 06:32:22;;;;;;;13.55;3.67;;;20.10;95.20;;;;;;4246361;27;20085;-70
2021/07/07 06:34:24;;;;;;;18.80;3.97;;;20.10;94.80;;;;;;4246736;27;20043;-70
2021/07/07 06:36:29;;;;;;;13.98;3.50;;;20.20;94.70;;;;;;4228033;28;20059;-70
2021/07/07 06:38:32;;;;;;;14.80;3.60;;;20.10;94.70;;;;;;4246566;27;20058;-70
2021/07/07 06:40:36;;;;;;;8.75;3.05;;;20.10;94.60;;;;;;4246187;27;20058;-70
2021/07/07 06:42:39;;;;;;;13.68;3.08;;;20.00;94.70;;;;;;4227846;28;20075;-70
2021/07/07 06:44:42;;;;;;;12.07;3.20;;;20.00;94.90;;;;;;4246180;27;20066;-69
2021/07/07 06:46:45;;;;;;;13.63;3.17;;;20.10;94.60;;;;;;4246055;27;20061;-71
2021/07/07 06:48:48;;;;;;;9.70;3.05;;;20.10;94.70;;;;;;4246282;27;20119;-69
2021/07/07 06:50:53;;;;;;;18.15;3.80;;;20.10;94.40;;;;;;4245898;27;20051;-70
2021/07/07 06:52:57;;;;;;;;;;;20.00;94.40;;;;;;4248066;27;20260;-70
2021/07/07 06:55:00;;;;;;;13.88;3.33;;;20.00;94.50;;;;;;4246699;27;19926;-71
2021/07/07 06:57:03;;;;;;;14.65;3.92;;;20.00;94.50;;;;;;4246304;27;20058;-70
2021/07/07 06:59:06;;;;;;;16.38;3.72;;;19.90;94.60;;;;;;4245781;27;20051;-70
2021/07/07 07:01:09;;;;;;;11.57;3.35;;;19.90;94.30;;;;;;4245885;27;20058;-70
2021/07/07 07:03:12;;;;;;;12.00;3.72;;;20.20;94.30;;;;;;4245530;27;20058;-70
2021/07/07 07:05:17;;;;;;;13.15;3.40;;;20.10;94.40;;;;;;4245217;27;20705;-70
2021/07/07 07:07:20;;;;;;;15.63;3.42;;;20.10;94.40;;;;;;4245671;27;20047;-69
2021/07/07 07:09:24;;;;;;;18.17;3.67;;;20.20;94.20;;;;;;4245632;27;20051;-71
2021/07/07 07:11:27;;;;;;;15.52;4.18;;;20.20;94.50;;;;;;4245714;27;20055;-71
2021/07/07 07:13:30;;;;;;;15.32;4.30;;;20.30;93.60;;;;;;4245722;28;20143;-71
2021/07/07 07:15:34;;;;;;;13.18;3.70;;;20.40;93.00;;;;;;4245744;28;20047;-70
2021/07/07 07:17:38;;;;;;;11.90;3.10;;;20.60;93.00;;;;;;4245693;28;20500;-71
2021/07/07 07:19:41;;;;;;;14.40;3.42;;;20.60;93.10;;;;;;4248677;28;20046;-70
2021/07/07 07:21:45;;;;;;;16.10;4.28;;;20.80;93.00;;;;;;4247056;28;20776;-70
2021/07/07 07:23:49;;;;;;;15.13;3.47;;;20.80;92.90;;;;;;4244464;27;20051;-70
2021/07/07 07:25:53;;;;;;;16.95;4.50;;;20.90;92.80;;;;;;4247818;27;20057;-70
2021/07/07 07:27:57;;;;;;;10.45;3.13;;;20.80;93.00;;;;;;4243769;27;20499;-69
2021/07/07 07:30:00;;;;;;;10.65;3.40;;;20.60;92.80;;;;;;4242554;27;20526;-71
2021/07/07 07:32:04;;;;;;;20.10;3.92;;;20.80;93.20;;;;;;4242555;28;20039;-70
2021/07/07 07:34:07;;;;;;;12.32;3.47;;;20.90;93.20;;;;;;4251432;28;20055;-71
2021/07/07 07:36:15;;;;;;;13.57;4.00;;;21.20;93.10;;;;;;4249161;27;20057;-70
2021/07/07 07:38:32;;;;;;;14.07;3.53;;;21.50;92.40;;;;;;4226387;28;20056;-70
2021/07/07 07:40:37;;;;;;;11.13;3.20;;;21.40;92.20;;;;;;4245586;27;20058;-70
2021/07/07 07:42:43;;;;;;;;;;;21.60;92.30;;;;;;4242892;28;20047;-70
2021/07/07 07:44:46;;;;;;;;;;;21.70;92.00;;;;;;4239077;28;19915;-70
2021/07/07 07:46:49;;;;;;;14.38;4.00;;;21.80;91.50;;;;;;4243500;27;19923;-70
2021/07/07 07:48:54;;;;;;;16.67;3.50;;;21.60;91.20;;;;;;4246375;27;20125;-70
2021/07/07 07:50:58;;;;;;;18.95;3.53;;;21.50;91.70;;;;;;4245338;27;20096;-69
2021/07/07 07:53:01;;;;;;;11.60;3.05;;;21.40;91.20;;;;;;4249494;27;20078;-69
2021/07/07 07:55:07;;;;;;;12.50;3.10;;;21.60;91.50;;;;;;4240867;27;20099;-70
2021/07/07 07:57:12;;;;;;;12.98;3.40;;;21.70;90.90;;;;;;4245502;27;20051;-70
2021/07/07 07:59:16;;;;;;;9.18;2.90;;;21.80;90.70;;;;;;4244011;27;20055;-70
2021/07/07 08:01:20;;;;;;;11.82;3.10;;;21.80;90.50;;;;;;4249139;27;20096;-71
2021/07/07 08:03:23;;;;;;;15.00;3.83;;;21.80;90.90;;;;;;4251394;27;20051;-70
2021/07/07 08:05:26;;;;;;;13.38;3.15;;;21.90;91.00;;;;;;4247169;27;20050;-70
2021/07/07 08:07:30;;;;;;;10.50;3.20;;;22.10;90.80;;;;;;4252468;27;20083;-70
2021/07/07 08:09:33;;;;;;;12.95;3.50;;;22.20;90.90;;;;;;4248469;27;20050;-70
2021/07/07 08:11:38;;;;;;;14.27;3.20;;;22.10;90.10;;;;;;4230607;27;20052;-70
2021/07/07 08:13:42;;;;;;;8.40;2.65;;;22.10;90.20;;;;;;4247487;27;20058;-70
2021/07/07 08:15:48;;;;;;;;;;;22.10;89.80;;;;;;4251378;27;20055;-71
2021/07/07 08:17:54;;;;;;;8.68;3.08;;;22.20;89.50;;;;;;4239077;27;19923;-70
2021/07/07 08:20:05;;;;;;;11.48;2.95;;;22.40;89.50;;;;;;4246342;27;20056;-70
2021/07/07 08:22:11;;;;;;;8.82;2.60;;;22.50;88.50;;;;;;4247041;27;20154;-70
2021/07/07 08:24:15;;;;;;;9.68;2.97;;;22.50;87.40;;;;;;4246706;27;20039;-70
2021/07/07 08:26:18;;;;;;;9.90;2.92;;;22.50;87.60;;;;;;4244930;27;20059;-70
2021/07/07 08:28:21;;;;;;;12.70;3.10;;;22.40;87.80;;;;;;4247559;27;20488;-70
2021/07/07 08:30:25;;;;;;;8.82;3.00;;;22.50;88.30;;;;;;4248434;27;20063;-70
2021/07/07 08:32:29;;;;;;;14.55;2.92;;;22.50;88.10;;;;;;4246325;27;20055;-71
2021/07/07 08:34:39;;;;;;;13.45;3.17;;;22.80;87.90;;;;;;4247278;27;20047;-72
2021/07/07 08:36:42;;;;;;;14.63;3.20;;;23.00;87.90;;;;;;4249057;27;20047;-72
2021/07/07 08:38:45;;;;;;;10.98;2.53;;;22.80;85.90;;;;;;4246941;27;20057;-71
2021/07/07 08:40:49;;;;;;;12.00;2.42;;;22.70;85.90;;;;;;4247395;27;20054;-71
2021/07/07 08:42:52;;;;;;;8.02;2.33;;;22.80;85.80;;;;;;4249607;27;20139;-71
2021/07/07 08:44:56;;;;;;;6.40;2.22;;;23.00;85.70;;;;;;4244088;27;20047;-72
2021/07/07 08:47:00;;;;;;;14.80;3.13;;;23.10;84.60;;;;;;4249461;27;20545;-72
2021/07/07 08:49:04;;;;;;;10.10;2.40;;;23.00;84.20;;;;;;4250984;27;20059;-72
2021/07/07 08:51:08;;;;;;;7.78;2.63;;;23.10;85.70;;;;;;4248531;27;20063;-71
2021/07/07 08:53:15;;;;;;;7.32;2.40;;;23.30;85.70;;;;;;4241895;27;20055;-71
2021/07/07 08:55:19;;;;;;;12.93;2.45;;;23.20;83.70;;;;;;4237821;27;20066;-70
2021/07/07 08:57:22;;;;;;;18.40;3.10;;;22.80;83.70;;;;;;4250198;27;20047;-71
2021/07/07 08:59:30;;;;;;;10.23;2.55;;;23.00;84.90;;;;;;4247696;27;20051;-71
2021/07/07 09:01:59;;;;;;;7.00;2.30;;;23.10;84.00;;;;;;4231839;27;20055;-70
2021/07/07 09:04:04;;;;;;;10.52;2.85;;;23.10;83.60;;;;;;4244079;27;20554;-70
2021/07/07 09:06:09;;;;;;;7.88;2.38;;;23.20;83.60;;;;;;4245795;27;20051;-70
2021/07/07 09:08:12;;;;;;;7.95;2.45;;;23.10;83.90;;;;;;4247161;27;20063;-70
2021/07/07 09:10:18;;;;;;;8.73;2.50;;;23.00;84.40;;;;;;4250855;27;20051;-71
2021/07/07 09:12:26;;;;;;;12.23;2.33;;;23.00;84.60;;;;;;4246484;27;20919;-71
2021/07/07 09:14:32;;;;;;;10.38;2.72;;;22.90;83.40;;;;;;4245515;27;20575;-70
2021/07/07 09:16:45;;;;;;;13.02;2.53;;;22.70;84.20;;;;;;4247126;27;20054;-71
2021/07/07 09:18:48;;;;;;;6.10;2.35;;;22.90;83.80;;;;;;4243718;27;20055;-71
2021/07/07 09:20:53;;;;;;;6.53;2.00;;;22.90;82.70;;;;;;4246651;27;20403;-71
2021/07/07 09:23:16;;;;;;;6.28;2.30;;;22.70;82.70;;;;;;4238333;27;20071;-70
2021/07/07 09:25:27;;;;;;;10.60;2.15;;;22.80;83.10;;;;;;4236930;27;20565;-72
2021/07/07 09:27:34;;;;;;;5.57;2.38;;;22.90;83.40;;;;;;4243707;27;20120;-71
2021/07/07 09:29:39;;;;;;;9.50;2.60;;;23.00;83.40;;;;;;4244177;27;20392;-71
2021/07/07 09:31:42;;;;;;;;;;;22.90;83.20;;;;;;4242659;27;20495;-71
2021/07/07 09:33:45;;;;;;;8.18;2.60;;;23.00;83.50;;;;;;4244576;27;20000;-71
2021/07/07 09:35:50;;;;;;;14.75;3.28;;;23.20;83.50;;;;;;4244891;27;20047;-70
2021/07/07 09:37:56;;;;;;;10.45;2.60;;;23.00;82.70;;;;;;4245083;27;20443;-70
2021/07/07 09:39:59;;;;;;;12.52;2.80;;;22.80;83.20;;;;;;4244363;27;20047;-69
2021/07/07 09:42:02;;;;;;;9.30;2.72;;;22.70;84.80;;;;;;4243927;27;20086;-71
2021/07/07 09:44:07;;;;;;;11.15;2.95;;;22.70;84.30;;;;;;4245716;27;20101;-71
2021/07/07 09:46:10;;;;;;;10.75;2.88;;;22.50;85.10;;;;;;4245053;27;20054;-73
2021/07/07 09:48:15;;;;;;;9.90;2.67;;;22.50;85.80;;;;;;4245520;27;20050;-72
2021/07/07 09:50:19;;;;;;;11.18;2.55;;;22.90;85.50;;;;;;4236190;27;20059;-72
2021/07/07 09:52:24;;;;;;;16.95;2.97;;;22.90;85.20;;;;;;4245445;27;20051;-72
2021/07/07 09:54:29;;;;;;;11.48;3.20;;;23.10;85.30;;;;;;4244023;27;20062;-73
2021/07/07 09:56:33;;;;;;;11.32;2.53;;;23.40;85.00;;;;;;4246942;27;20057;-73
2021/07/07 09:58:36;;;;;;;15.55;2.90;;;23.30;84.90;;;;;;4228306;27;20074;-72
2021/07/07 10:00:39;;;;;;;9.00;2.85;;;23.20;84.70;;;;;;4245924;27;20055;-74
2021/07/07 10:02:43;;;;;;;8.80;2.30;;;23.00;82.90;;;;;;4246065;27;20377;-73
2021/07/07 10:04:49;;;;;;;15.63;3.72;;;22.90;85.60;;;;;;4244891;27;20050;-73
2021/07/07 10:06:53;;;;;;;7.78;2.53;;;23.00;85.80;;;;;;4246044;27;20051;-73
2021/07/07 10:08:57;;;;;;;11.02;2.83;;;23.10;85.10;;;;;;4244926;27;20278;-72
2021/07/07 10:11:04;;;;;;;12.05;2.75;;;23.20;84.90;;;;;;4243382;27;20055;-73
2021/07/07 10:13:09;;;;;;;11.68;2.95;;;23.30;83.90;;;;;;4246689;27;20055;-74
2021/07/07 10:15:14;;;;;;;6.45;2.58;;;23.30;83.50;;;;;;4229447;28;20106;-72
2021/07/07 10:17:18;;;;;;;10.30;2.80;;;23.50;84.30;;;;;;4244005;27;20055;-71
2021/07/07 10:19:21;;;;;;;10.73;2.65;;;23.80;84.30;;;;;;4249735;27;20126;-71
2021/07/07 10:21:25;;;;;;;10.57;2.75;;;23.60;83.20;;;;;;4245401;27;20649;-72
2021/07/07 10:23:32;;;;;;;8.70;3.15;;;23.50;84.10;;;;;;4248735;27;20058;-72
2021/07/07 10:25:37;;;;;;;8.98;3.35;;;23.30;83.90;;;;;;4252384;27;20051;-72
2021/07/07 10:27:48;;;;;;;7.55;2.78;;;23.40;84.70;;;;;;4250594;27;20120;-72
2021/07/07 10:29:52;;;;;;;10.45;3.08;;;23.50;85.10;;;;;;4245124;27;20057;-74
2021/07/07 10:31:57;;;;;;;10.25;3.35;;;23.50;83.90;;;;;;4249393;27;20051;-71
2021/07/07 10:34:01;;;;;;;8.18;2.80;;;23.60;83.90;;;;;;4254059;27;20057;-71
2021/07/07 10:36:16;;;;;;;9.70;2.85;;;23.70;83.50;;;;;;4254560;27;20493;-72
2021/07/07 10:38:20;;;;;;;13.88;3.25;;;23.60;82.70;;;;;;4245847;27;20054;-72
2021/07/07 10:40:25;;;;;;;9.27;3.67;;;23.60;82.30;;;;;;4244220;27;20051;-74
2021/07/07 10:42:41;;;;;;;;;;;23.40;81.90;;;;;;4247956;27;20545;-72